createdAt,value
2022-12-04T00:01:29.534Z,-0.60
2022-12-04T00:04:01.276Z,-0.70
2022-12-04T00:06:30.449Z,-0.60
2022-12-04T00:08:58.902Z,-0.70
2022-12-04T00:11:30.728Z,-0.70
2022-12-04T00:14:04.818Z,-0.60
2022-12-04T00:16:36.980Z,-0.70
2022-12-04T00:19:05.488Z,-0.70
2022-12-04T00:21:36.363Z,-0.70
2022-12-04T00:24:05.271Z,-0.70
2022-12-04T00:26:33.360Z,-0.60
2022-12-04T00:29:01.589Z,-0.70
2022-12-04T00:31:31.811Z,-0.50
2022-12-04T00:34:02.477Z,-0.40
2022-12-04T00:36:31.400Z,-0.40
2022-12-04T00:39:01.469Z,-0.50
2022-12-04T00:41:32.498Z,-0.50
2022-12-04T00:44:01.423Z,-0.50
2022-12-04T00:46:29.941Z,-0.50
2022-12-04T00:48:59.421Z,-0.50
2022-12-04T00:51:29.815Z,-0.50
2022-12-04T00:53:57.900Z,-0.50
2022-12-04T00:56:28.961Z,-0.40
2022-12-04T00:59:01.145Z,-0.40
2022-12-04T01:01:31.369Z,-0.50
2022-12-04T01:03:59.630Z,-0.50
2022-12-04T01:06:32.496Z,-0.50
2022-12-04T01:09:03.041Z,-0.50
2022-12-04T01:11:32.399Z,-0.50
2022-12-04T01:14:01.899Z,-0.30
2022-12-04T01:16:33.299Z,-0.30
2022-12-04T01:19:01.640Z,-0.40
2022-12-04T01:21:31.035Z,-0.30
2022-12-04T01:23:59.901Z,-0.20
2022-12-04T01:26:28.814Z,-0.20
2022-12-04T01:28:56.936Z,-0.30
2022-12-04T01:31:25.690Z,-0.40
2022-12-04T01:33:54.255Z,-0.40
2022-12-04T01:36:30.428Z,-0.40
2022-12-04T01:38:59.086Z,-0.50
2022-12-04T01:41:30.477Z,-0.40
2022-12-04T01:44:16.321Z,-0.30
2022-12-04T01:46:46.528Z,-0.30
2022-12-04T01:49:20.780Z,-0.40
2022-12-04T01:51:55.383Z,-0.30
2022-12-04T01:54:29.251Z,-0.30
2022-12-04T01:57:04.945Z,-0.30
2022-12-04T01:59:40.976Z,-0.30
2022-12-04T02:02:15.149Z,-0.40
2022-12-04T02:04:44.909Z,-0.40
2022-12-04T02:07:14.318Z,-0.40
2022-12-04T02:09:43.696Z,-0.40
2022-12-04T02:12:23.452Z,-0.50
2022-12-04T02:15:08.111Z,-0.40
2022-12-04T02:17:46.829Z,-0.40
2022-12-04T02:20:26.367Z,-0.40
2022-12-04T02:23:34.374Z,-0.40
2022-12-04T02:26:20.715Z,-0.40
2022-12-04T02:28:57.531Z,-0.30
2022-12-04T02:31:34.693Z,-0.30
2022-12-04T02:34:08.062Z,-0.20
2022-12-04T02:36:45.259Z,-0.30
2022-12-04T02:39:23.049Z,-0.30
2022-12-04T02:42:00.398Z,-0.30
2022-12-04T02:44:38.195Z,-0.20
2022-12-04T02:47:12.976Z,-0.20
2022-12-04T02:49:47.205Z,-0.10
2022-12-04T02:52:21.852Z,-0.10
2022-12-04T02:54:57.690Z,-0.10
2022-12-04T02:57:32.897Z,-0.20
2022-12-04T03:00:08.240Z,-0.10
2022-12-04T03:02:43.589Z,-0.10
2022-12-04T03:05:18.293Z,-0.10
2022-12-04T03:07:53.516Z,-0.10
2022-12-04T03:10:29.001Z,-0.10
2022-12-04T03:13:04.188Z,-0.10
2022-12-04T03:15:42.488Z,-0.10
2022-12-04T03:18:17.754Z,-0.10
2022-12-04T03:20:51.015Z,0.00
2022-12-04T03:23:29.336Z,-0.10
2022-12-04T03:26:05.727Z,-0.10
2022-12-04T03:28:49.521Z,-0.20
2022-12-04T03:31:27.182Z,-0.20
2022-12-04T03:34:03.599Z,-0.10
2022-12-04T03:36:38.134Z,0.00
2022-12-04T03:39:16.443Z,0.10
2022-12-04T03:41:58.884Z,0.00
2022-12-04T03:44:37.946Z,0.00
2022-12-04T03:47:13.910Z,-0.10
2022-12-04T03:49:47.867Z,0.00
2022-12-04T03:52:27.884Z,0.00
2022-12-04T03:55:02.795Z,0.10
2022-12-04T03:57:44.535Z,0.00
2022-12-04T04:00:15.920Z,0.00
2022-12-04T04:02:53.280Z,-0.10
2022-12-04T04:05:25.039Z,-0.10
2022-12-04T04:08:20.456Z,-0.10
2022-12-04T04:10:50.871Z,-0.10
2022-12-04T04:13:44.013Z,-0.10
2022-12-04T04:16:35.300Z,-0.10
2022-12-04T04:19:22.475Z,-0.10
2022-12-04T04:22:11.975Z,-0.10
2022-12-04T04:24:46.150Z,-0.10
2022-12-04T04:27:15.421Z,-0.10
2022-12-04T04:29:50.731Z,0.00
2022-12-04T04:32:35.244Z,0.00
2022-12-04T04:35:18.569Z,0.10
2022-12-04T04:37:59.437Z,0.00
2022-12-04T04:40:37.761Z,0.10
2022-12-04T04:43:14.114Z,0.00
2022-12-04T04:45:48.290Z,0.00
2022-12-04T04:48:24.794Z,-0.10
2022-12-04T04:50:56.039Z,-0.10
2022-12-04T04:53:31.576Z,0.00
2022-12-04T04:56:00.568Z,0.10
2022-12-04T04:58:28.669Z,0.00
2022-12-04T05:01:04.727Z,0.00
2022-12-04T05:03:33.533Z,0.00
2022-12-04T05:06:03.135Z,0.00
2022-12-04T05:08:31.552Z,0.00
2022-12-04T05:10:59.790Z,0.00
2022-12-04T05:13:29.879Z,0.00
2022-12-04T05:15:58.967Z,0.10
2022-12-04T05:18:27.482Z,0.00
2022-12-04T05:20:56.112Z,0.00
2022-12-04T05:23:26.299Z,0.00
2022-12-04T05:26:01.028Z,-0.10
2022-12-04T05:28:29.184Z,-0.10
2022-12-04T05:30:58.102Z,0.00
2022-12-04T05:33:26.498Z,0.10
2022-12-04T05:36:00.259Z,0.10
2022-12-04T05:38:29.918Z,0.00
2022-12-04T05:40:59.548Z,-0.10
2022-12-04T05:43:28.627Z,0.00
2022-12-04T05:45:56.823Z,0.00
2022-12-04T05:48:24.826Z,0.00
2022-12-04T05:50:53.023Z,0.00
2022-12-04T05:53:21.035Z,0.10
2022-12-04T05:55:57.491Z,0.00
2022-12-04T05:58:25.989Z,0.10
2022-12-04T06:00:54.180Z,0.10
2022-12-04T06:03:23.681Z,0.00
2022-12-04T06:05:51.906Z,-0.10
2022-12-04T06:08:19.973Z,0.00
2022-12-04T06:10:48.053Z,0.00
2022-12-04T06:13:17.407Z,0.00
2022-12-04T06:15:45.418Z,-0.10
2022-12-04T06:18:13.439Z,-0.10
2022-12-04T06:20:41.492Z,-0.10
2022-12-04T06:23:09.546Z,-0.10
2022-12-04T06:25:37.559Z,0.00
2022-12-04T06:28:05.723Z,0.00
2022-12-04T06:30:37.146Z,0.10
2022-12-04T06:33:05.523Z,0.10
2022-12-04T06:35:33.539Z,0.10
2022-12-04T06:38:01.554Z,0.10
2022-12-04T06:40:29.572Z,0.10
2022-12-04T06:42:57.579Z,0.10
2022-12-04T06:45:25.845Z,0.10
2022-12-04T06:47:55.316Z,0.10
2022-12-04T06:50:23.350Z,0.10
2022-12-04T06:52:52.373Z,0.10
2022-12-04T06:55:20.381Z,0.10
2022-12-04T06:57:48.383Z,0.10
2022-12-04T07:00:17.829Z,0.00
2022-12-04T07:02:45.931Z,0.00
2022-12-04T07:05:15.843Z,0.00
2022-12-04T07:07:43.886Z,0.00
2022-12-04T07:10:13.006Z,0.00
2022-12-04T07:12:41.008Z,0.00
2022-12-04T07:15:10.787Z,0.00
2022-12-04T07:17:38.810Z,0.10
2022-12-04T07:20:08.514Z,0.10
2022-12-04T07:22:37.883Z,0.10
2022-12-04T07:25:07.261Z,0.00
2022-12-04T07:27:35.284Z,0.00
2022-12-04T07:30:14.082Z,0.10
2022-12-04T07:32:43.654Z,0.10
2022-12-04T07:35:11.643Z,0.10
2022-12-04T07:37:40.986Z,0.10
2022-12-04T07:40:10.205Z,0.10
2022-12-04T07:42:38.447Z,0.20
2022-12-04T07:45:07.753Z,0.20
2022-12-04T07:47:37.373Z,0.20
2022-12-04T07:50:06.853Z,0.10
2022-12-04T07:52:37.226Z,0.10
2022-12-04T07:55:08.291Z,0.30
2022-12-04T07:57:36.356Z,0.30
2022-12-04T08:00:05.826Z,0.30
2022-12-04T08:02:40.058Z,0.30
2022-12-04T08:05:08.450Z,0.30
2022-12-04T08:07:36.577Z,0.30
2022-12-04T08:10:07.406Z,0.30
2022-12-04T08:12:35.556Z,0.30
2022-12-04T08:15:05.159Z,0.30
2022-12-04T08:17:33.355Z,0.20
2022-12-04T08:20:01.537Z,0.20
2022-12-04T08:22:29.553Z,0.20
2022-12-04T08:24:57.761Z,0.10
2022-12-04T08:27:27.207Z,0.20
2022-12-04T08:29:55.371Z,0.20
2022-12-04T08:32:23.589Z,0.20
2022-12-04T08:34:55.753Z,0.20
2022-12-04T08:37:24.180Z,0.20
2022-12-04T08:39:52.550Z,0.30
2022-12-04T08:42:20.569Z,0.20
2022-12-04T08:44:53.045Z,0.20
2022-12-04T08:47:21.126Z,0.20
2022-12-04T08:49:49.127Z,0.30
2022-12-04T08:52:17.469Z,0.30
2022-12-04T08:54:45.744Z,0.30
2022-12-04T08:57:13.785Z,0.20
2022-12-04T08:59:42.281Z,0.20
2022-12-04T09:02:12.965Z,0.30
2022-12-04T09:04:41.040Z,0.30
2022-12-04T09:07:09.127Z,0.30
2022-12-04T09:09:37.755Z,0.30
2022-12-04T09:12:05.808Z,0.30
2022-12-04T09:14:33.805Z,0.30
2022-12-04T09:17:01.928Z,0.30
2022-12-04T09:19:32.076Z,0.30
2022-12-04T09:22:00.089Z,0.30
2022-12-04T09:24:28.120Z,0.30
2022-12-04T09:26:56.193Z,0.30
2022-12-04T09:29:26.074Z,0.30
2022-12-04T09:31:54.198Z,0.30
2022-12-04T09:34:22.210Z,0.30
2022-12-04T09:36:51.563Z,0.30
2022-12-04T09:39:19.581Z,0.30
2022-12-04T09:42:09.568Z,0.30
2022-12-04T09:44:45.238Z,0.30
2022-12-04T09:47:22.819Z,0.40
2022-12-04T09:49:56.226Z,0.40
2022-12-04T09:52:42.699Z,0.30
2022-12-04T09:55:18.894Z,0.30
2022-12-04T09:57:50.696Z,0.30
2022-12-04T10:00:22.379Z,0.30
2022-12-04T10:02:56.966Z,0.30
2022-12-04T10:05:43.167Z,0.30
2022-12-04T10:08:23.997Z,0.30
2022-12-04T10:11:09.563Z,0.30
2022-12-04T10:14:04.448Z,0.40
2022-12-04T10:16:49.355Z,0.40
2022-12-04T10:19:31.097Z,0.40
2022-12-04T10:22:12.619Z,0.40
2022-12-04T10:24:49.064Z,0.50
2022-12-04T10:27:26.217Z,0.50
2022-12-04T10:29:59.939Z,0.60
2022-12-04T10:32:32.793Z,0.60
2022-12-04T10:35:20.403Z,0.60
2022-12-04T10:37:52.434Z,0.60
2022-12-04T10:40:26.843Z,0.60
2022-12-04T10:43:03.246Z,0.60
2022-12-04T10:45:32.537Z,0.60
2022-12-04T10:48:01.248Z,0.60
2022-12-04T10:50:29.368Z,0.60
2022-12-04T10:52:58.046Z,0.50
2022-12-04T10:55:34.222Z,0.60
2022-12-04T10:58:03.027Z,0.50
2022-12-04T11:00:33.955Z,0.60
2022-12-04T11:03:09.721Z,0.60
2022-12-04T11:05:46.217Z,0.60
2022-12-04T11:08:25.626Z,0.50
2022-12-04T11:11:02.826Z,0.50
2022-12-04T11:13:31.225Z,0.60
2022-12-04T11:16:00.671Z,0.60
2022-12-04T11:18:32.328Z,0.60
2022-12-04T11:21:05.531Z,0.50
2022-12-04T11:23:42.815Z,0.60
2022-12-04T11:26:14.128Z,0.50
2022-12-04T11:28:55.543Z,0.50
2022-12-04T11:31:25.188Z,0.60
2022-12-04T11:33:57.738Z,0.70
2022-12-04T11:36:31.266Z,0.70
2022-12-04T11:39:15.488Z,0.70
2022-12-04T11:41:45.304Z,0.70
2022-12-04T11:44:27.214Z,0.80
2022-12-04T11:46:58.637Z,0.90
2022-12-04T11:49:27.924Z,0.90
2022-12-04T11:52:14.910Z,1.00
2022-12-04T11:55:00.771Z,1.00
2022-12-04T11:57:43.272Z,1.00
2022-12-04T12:00:16.091Z,0.90
2022-12-04T12:03:01.835Z,0.80
2022-12-04T12:06:18.537Z,0.90
2022-12-04T12:09:04.683Z,0.90
2022-12-04T12:11:38.245Z,0.80
2022-12-04T12:14:21.175Z,0.70
2022-12-04T12:17:05.456Z,0.70
2022-12-04T12:19:58.604Z,0.60
2022-12-04T12:22:45.522Z,0.70
2022-12-04T12:25:21.696Z,0.90
2022-12-04T12:28:20.278Z,0.90
2022-12-04T12:31:13.610Z,0.80
2022-12-04T12:33:50.921Z,0.90
2022-12-04T12:36:25.509Z,0.90
2022-12-04T12:39:00.785Z,0.90
2022-12-04T12:41:37.911Z,0.80
2022-12-04T12:44:15.771Z,0.90
2022-12-04T12:46:51.898Z,0.90
2022-12-04T12:49:29.841Z,0.90
2022-12-04T12:52:06.147Z,1.00
2022-12-04T12:54:45.003Z,1.00
2022-12-04T12:57:20.784Z,0.90
2022-12-04T12:59:57.165Z,0.90
2022-12-04T13:02:31.128Z,0.90
2022-12-04T13:05:06.949Z,0.90
2022-12-04T13:07:48.978Z,0.90
2022-12-04T13:10:22.665Z,0.90
2022-12-04T13:12:57.622Z,0.90
2022-12-04T13:15:35.710Z,0.90
2022-12-04T13:18:09.872Z,0.90
2022-12-04T13:20:49.207Z,1.00
2022-12-04T13:23:41.630Z,0.90
2022-12-04T13:26:22.113Z,1.00
2022-12-04T13:29:02.685Z,0.90
2022-12-04T13:31:43.150Z,0.80
2022-12-04T13:34:53.634Z,0.80
2022-12-04T13:37:45.801Z,0.90
2022-12-04T13:40:34.258Z,0.90
2022-12-04T13:43:21.590Z,0.90
2022-12-04T13:45:53.530Z,0.90
2022-12-04T13:48:36.458Z,0.90
2022-12-04T13:51:27.007Z,0.90
2022-12-04T13:54:25.893Z,0.90
2022-12-04T13:56:56.878Z,0.80
2022-12-04T13:59:37.179Z,0.80
2022-12-04T14:02:28.979Z,0.80
2022-12-04T14:05:02.235Z,0.80
2022-12-04T14:07:35.543Z,0.80
2022-12-04T14:10:07.613Z,0.80
2022-12-04T14:12:40.935Z,0.80
2022-12-04T14:15:22.784Z,0.80
2022-12-04T14:18:02.385Z,0.80
2022-12-04T14:20:33.034Z,0.80
2022-12-04T14:23:38.958Z,0.70
2022-12-04T14:26:21.206Z,0.70
2022-12-04T14:28:49.822Z,0.80
2022-12-04T14:31:33.395Z,0.80
2022-12-04T14:34:14.593Z,0.80
2022-12-04T14:36:46.526Z,0.80
2022-12-04T14:39:26.611Z,0.90
2022-12-04T14:42:07.125Z,0.80
2022-12-04T14:44:35.242Z,0.80
2022-12-04T14:47:21.308Z,0.70
2022-12-04T14:50:17.064Z,0.70
2022-12-04T14:52:52.351Z,0.60
2022-12-04T14:55:33.615Z,0.70
2022-12-04T14:58:26.031Z,0.70
2022-12-04T15:00:56.076Z,0.60
2022-12-04T15:03:27.816Z,0.60
2022-12-04T15:06:06.593Z,0.60
2022-12-04T15:08:35.557Z,0.60
2022-12-04T15:11:25.369Z,0.70
2022-12-04T15:13:53.577Z,0.70
2022-12-04T15:16:23.394Z,0.70
2022-12-04T15:18:56.015Z,0.80
2022-12-04T15:21:29.321Z,2.20
2022-12-04T15:23:57.364Z,0.80
2022-12-04T15:26:28.204Z,0.80
2022-12-04T15:29:00.984Z,0.80
2022-12-04T15:31:33.088Z,0.80
2022-12-04T15:34:05.111Z,0.80
2022-12-04T15:36:45.277Z,0.80
2022-12-04T15:39:19.810Z,0.80
2022-12-04T15:41:49.854Z,0.80
2022-12-04T15:44:29.749Z,0.90
2022-12-04T15:47:02.196Z,0.90
2022-12-04T15:49:34.355Z,0.80
2022-12-04T15:52:08.900Z,0.80
2022-12-04T15:54:38.463Z,0.80
2022-12-04T15:57:19.194Z,0.80
2022-12-04T15:59:52.228Z,0.80
2022-12-04T16:02:31.897Z,0.80
2022-12-04T16:05:10.986Z,0.90
2022-12-04T16:07:51.108Z,0.90
2022-12-04T16:10:24.806Z,0.90
2022-12-04T16:12:57.701Z,0.90
2022-12-04T16:15:32.707Z,0.90
2022-12-04T16:18:00.789Z,1.00
2022-12-04T16:20:28.993Z,1.00
2022-12-04T16:22:57.037Z,1.00
2022-12-04T16:25:25.081Z,1.10
2022-12-04T16:27:54.697Z,1.00
2022-12-04T16:30:22.783Z,1.00
2022-12-04T16:32:50.823Z,1.00
2022-12-04T16:35:19.047Z,1.00
2022-12-04T16:37:47.186Z,1.00
2022-12-04T16:40:16.719Z,1.00
2022-12-04T16:42:45.169Z,1.10
2022-12-04T16:45:27.303Z,1.10
2022-12-04T16:47:56.142Z,1.10
2022-12-04T16:50:25.600Z,1.00
2022-12-04T16:52:54.540Z,1.00
2022-12-04T16:55:29.347Z,1.00
2022-12-04T16:57:57.384Z,0.90
2022-12-04T17:00:27.046Z,0.90
2022-12-04T17:02:55.378Z,1.00
2022-12-04T17:05:27.699Z,1.00
2022-12-04T17:07:59.067Z,1.00
2022-12-04T17:10:27.309Z,1.00
2022-12-04T17:12:56.020Z,1.00
2022-12-04T17:15:24.315Z,1.00
2022-12-04T17:17:53.747Z,1.00
2022-12-04T17:20:22.531Z,1.00
2022-12-04T17:22:50.835Z,1.00
2022-12-04T17:25:19.535Z,1.10
2022-12-04T17:27:47.656Z,1.10
2022-12-04T17:30:16.452Z,1.10
2022-12-04T17:32:44.746Z,1.10
2022-12-04T17:35:14.432Z,1.10
2022-12-04T17:37:42.671Z,1.10
2022-12-04T17:40:12.989Z,1.10
2022-12-04T17:42:41.837Z,1.10
2022-12-04T17:45:12.048Z,1.20
2022-12-04T17:47:40.104Z,1.20
2022-12-04T17:50:09.643Z,1.20
2022-12-04T17:52:39.041Z,1.20
2022-12-04T17:55:09.007Z,1.30
2022-12-04T17:57:37.147Z,1.20
2022-12-04T18:00:07.035Z,1.20
2022-12-04T18:02:41.470Z,1.20
2022-12-04T18:05:10.308Z,1.20
2022-12-04T18:07:39.753Z,1.20
2022-12-04T18:10:08.833Z,1.20
2022-12-04T18:12:36.894Z,1.10
2022-12-04T18:15:06.383Z,1.20
2022-12-04T18:17:34.475Z,1.20
2022-12-04T18:20:05.075Z,1.20
2022-12-04T18:22:33.748Z,1.20
2022-12-04T18:25:03.362Z,1.20
2022-12-04T18:27:31.548Z,1.30
2022-12-04T18:30:01.484Z,1.30
2022-12-04T18:32:29.548Z,1.30
2022-12-04T18:34:57.567Z,1.20
2022-12-04T18:37:25.610Z,1.20
2022-12-04T18:39:53.854Z,1.20
2022-12-04T18:42:23.365Z,1.30
2022-12-04T18:44:51.519Z,1.30
2022-12-04T18:47:19.665Z,1.30
2022-12-04T18:49:48.035Z,1.30
2022-12-04T18:52:16.192Z,1.30
2022-12-04T18:54:44.389Z,1.30
2022-12-04T18:57:12.422Z,1.30
2022-12-04T18:59:41.926Z,1.30
2022-12-04T19:02:11.504Z,1.30
2022-12-04T19:04:39.545Z,1.30
2022-12-04T19:07:07.601Z,1.30
2022-12-04T19:10:09.487Z,1.30
2022-12-04T19:12:23.693Z,1.30
2022-12-04T19:14:53.371Z,1.40
2022-12-04T19:17:22.443Z,1.40
2022-12-04T19:19:50.631Z,1.40
2022-12-04T19:22:19.112Z,1.40
2022-12-04T19:24:48.356Z,1.40
2022-12-04T19:27:16.441Z,1.40
2022-12-04T19:29:44.710Z,1.50
2022-12-04T19:32:15.499Z,1.50
2022-12-04T19:34:43.851Z,1.60
2022-12-04T19:37:12.620Z,1.60
2022-12-04T19:39:40.765Z,1.50
2022-12-04T19:42:09.262Z,1.60
2022-12-04T19:44:48.513Z,1.60
2022-12-04T19:47:19.321Z,1.60
2022-12-04T19:49:47.511Z,1.70
2022-12-04T19:52:15.861Z,1.70
2022-12-04T19:54:44.043Z,1.60
2022-12-04T19:57:12.828Z,1.60
2022-12-04T19:59:45.979Z,1.60
2022-12-04T20:02:14.810Z,1.60
2022-12-04T20:04:44.650Z,1.70
2022-12-04T20:07:12.954Z,1.70
2022-12-04T20:09:41.172Z,1.70
2022-12-04T20:12:09.600Z,1.70
2022-12-04T20:14:37.634Z,1.70
2022-12-04T20:17:05.838Z,1.60
2022-12-04T20:19:34.022Z,1.70
2022-12-04T20:22:03.454Z,1.70
2022-12-04T20:24:31.511Z,1.70
2022-12-04T20:26:59.687Z,1.70
2022-12-04T20:29:27.713Z,1.70
2022-12-04T20:31:55.737Z,1.70
2022-12-04T20:34:23.837Z,1.70
2022-12-04T20:36:51.910Z,1.70
2022-12-04T20:39:21.921Z,1.70
2022-12-04T20:41:50.218Z,1.70
2022-12-04T20:44:20.464Z,1.70
2022-12-04T20:46:49.707Z,1.70
2022-12-04T20:49:22.565Z,1.70
2022-12-04T20:51:52.718Z,1.70
2022-12-04T20:54:23.815Z,1.80
2022-12-04T20:56:53.529Z,1.80
2022-12-04T20:59:24.740Z,1.80
2022-12-04T21:01:53.437Z,1.80
2022-12-04T21:04:22.682Z,1.80
2022-12-04T21:06:50.963Z,1.70
2022-12-04T21:09:23.920Z,1.80
2022-12-04T21:11:54.120Z,1.80
2022-12-04T21:14:42.630Z,1.80
2022-12-04T21:17:16.617Z,1.70
2022-12-04T21:19:45.432Z,1.70
2022-12-04T21:22:13.865Z,1.70
2022-12-04T21:24:43.231Z,1.80
2022-12-04T21:27:17.153Z,1.80
2022-12-04T21:29:49.358Z,1.80
2022-12-04T21:32:18.401Z,1.90
2022-12-04T21:34:46.491Z,1.80
2022-12-04T21:37:14.704Z,1.80
2022-12-04T21:39:44.747Z,1.80
2022-12-04T21:42:31.061Z,1.80
2022-12-04T21:45:00.673Z,1.90
2022-12-04T21:47:29.121Z,1.80
2022-12-04T21:49:57.558Z,2.10
2022-12-04T21:52:26.631Z,1.80
2022-12-04T21:54:56.304Z,1.80
2022-12-04T21:57:24.774Z,1.80
2022-12-04T21:59:53.580Z,1.80
2022-12-04T22:02:21.766Z,1.90
2022-12-04T22:04:50.122Z,1.90
2022-12-04T22:07:18.239Z,1.90
2022-12-04T22:09:46.276Z,1.90
2022-12-04T22:12:41.235Z,1.90
2022-12-04T22:15:03.673Z,1.90
2022-12-04T22:17:31.701Z,1.90
2022-12-04T22:19:59.890Z,1.90
2022-12-04T22:22:28.092Z,2.00
2022-12-04T22:24:56.100Z,1.90
2022-12-04T22:27:25.922Z,1.90
2022-12-04T22:29:54.225Z,1.90
2022-12-04T22:32:22.766Z,1.90
2022-12-04T22:34:50.943Z,1.90
2022-12-04T22:37:19.121Z,1.90
2022-12-04T22:39:47.152Z,1.90
2022-12-04T22:42:15.203Z,1.90
2022-12-04T22:44:44.770Z,1.80
2022-12-04T22:47:12.798Z,1.90
2022-12-04T22:49:40.838Z,1.80
2022-12-04T22:52:08.867Z,1.90
2022-12-04T22:54:36.907Z,1.90
2022-12-04T22:57:05.277Z,1.90
2022-12-04T22:59:33.617Z,1.80
2022-12-04T23:02:03.023Z,1.80
2022-12-04T23:04:31.169Z,1.90
2022-12-04T23:06:59.259Z,1.90
2022-12-04T23:09:27.863Z,1.90
2022-12-04T23:11:57.336Z,1.90
2022-12-04T23:14:27.011Z,1.90
2022-12-04T23:16:55.596Z,1.90
2022-12-04T23:19:25.060Z,1.90
2022-12-04T23:21:57.021Z,1.90
2022-12-04T23:24:26.265Z,1.90
2022-12-04T23:26:54.341Z,1.90
2022-12-04T23:29:51.560Z,1.90
2022-12-04T23:32:10.390Z,1.90
2022-12-04T23:34:39.940Z,1.90
2022-12-04T23:37:08.040Z,1.90
2022-12-04T23:39:36.378Z,1.90
2022-12-04T23:42:04.653Z,1.90
2022-12-04T23:44:32.684Z,1.90
2022-12-04T23:47:00.809Z,1.90
2022-12-04T23:49:29.139Z,2.00
2022-12-04T23:51:58.517Z,2.00
2022-12-04T23:54:27.248Z,2.00
2022-12-04T23:56:55.868Z,1.90
2022-12-04T23:59:24.041Z,2.00
